Time;durP1;ratioP1;P1;durP2;ratioP2;P2;SDS_P1;SDS_P2;PMS_P1;PMS_P2;Temp;Humidity;BMP_temperature;BMP_pressure;BME280_temperature;BME280_humidity;BME280_pressure;Samples;Min_cycle;Max_cycle;Signal;HPM_P1;HPM_P2
2021/04/26 00:01:14;;;;;;;6.82;3.90;;;;;;;14.70;56.23;97813.19;5058754;28;45293;-82
2021/04/26 00:03:39;;;;;;;5.03;3.70;;;;;;;14.58;57.11;97805.66;5058791;28;45190;-82
2021/04/26 00:06:05;;;;;;;5.00;3.40;;;;;;;14.54;58.16;97799.00;5058874;28;45244;-82
2021/04/26 00:08:31;;;;;;;4.72;3.20;;;;;;;14.64;56.14;97797.88;5058871;28;45273;-82
2021/04/26 00:10:57;;;;;;;4.00;3.15;;;;;;;14.62;57.53;97802.59;5072573;28;48322;-83
2021/04/26 00:13:22;;;;;;;5.43;3.47;;;;;;;14.65;59.76;97799.53;5072151;27;45279;-81
2021/04/26 00:15:48;;;;;;;4.30;3.30;;;;;;;14.67;60.90;97803.66;5061980;27;45411;-82
2021/04/26 00:18:13;;;;;;;4.63;3.22;;;;;;;14.46;59.43;97812.53;5058498;28;45258;-82
2021/04/26 00:20:41;;;;;;;4.75;3.22;;;;;;;14.63;59.30;97809.63;5059594;28;45364;-81
2021/04/26 00:23:07;;;;;;;4.80;3.42;;;;;;;14.73;61.54;97810.13;5058683;28;45363;-80
2021/04/26 00:25:32;;;;;;;9.23;5.05;;;;;;;14.65;62.82;97815.59;5058441;28;45258;-80
2021/04/26 00:27:59;;;;;;;7.03;5.10;;;;;;;14.68;61.64;97823.25;5058433;28;45353;-80
2021/04/26 00:30:25;;;;;;;8.15;5.30;;;;;;;14.61;64.15;97822.34;5076253;28;47974;-80
2021/04/26 00:32:52;;;;;;;9.23;6.32;;;;;;;14.52;64.82;97824.31;5078603;27;45504;-80
2021/04/26 00:35:18;;;;;;;9.38;6.53;;;;;;;14.49;64.66;97822.03;5079045;27;45249;-81
2021/04/26 00:37:44;;;;;;;8.15;6.10;;;;;;;14.16;64.76;97823.34;5065671;27;45159;-83
2021/04/26 00:40:11;;;;;;;8.20;5.30;;;;;;;14.29;63.83;97814.66;5058281;28;46005;-83
2021/04/26 00:42:37;;;;;;;4.25;3.63;;;;;;;14.40;62.04;97815.97;5058244;28;45321;-80
2021/04/26 00:45:09;;;;;;;5.53;3.60;;;;;;;14.38;61.75;97815.34;5058390;28;45339;-82
2021/04/26 00:47:41;;;;;;;5.25;3.03;;;;;;;14.37;59.95;97811.00;5057910;28;45462;-80
2021/04/26 00:50:12;;;;;;;4.18;2.88;;;;;;;14.33;58.70;97799.03;5059211;28;46202;-82
2021/04/26 00:52:37;;;;;;;;;;;;;;;14.27;58.33;97803.31;5058294;28;45317;-82
2021/04/26 00:55:04;;;;;;;4.88;3.00;;;;;;;14.32;55.09;97795.53;5059439;28;45488;-82
2021/04/26 00:57:30;;;;;;;3.40;2.72;;;;;;;14.29;54.03;97793.25;5057991;28;45429;-82
2021/04/26 00:59:57;;;;;;;4.65;2.58;;;;;;;14.49;56.42;97790.75;5058334;28;46498;-82
2021/04/26 01:02:24;;;;;;;3.60;2.80;;;;;;;14.49;57.26;97787.25;5057809;28;45274;-83
2021/04/26 01:04:51;;;;;;;5.13;2.90;;;;;;;14.32;57.12;97782.19;5058226;28;45435;-84
2021/04/26 01:07:17;;;;;;;4.63;2.70;;;;;;;14.38;55.73;97780.56;5071668;28;45404;-83
2021/04/26 01:09:42;;;;;;;4.00;2.78;;;;;;;14.50;55.27;97779.03;5061095;28;46185;-84
2021/04/26 01:12:16;;;;;;;2.85;2.20;;;;;;;14.40;56.45;97766.00;5071214;28;45437;-83
2021/04/26 01:14:50;;;;;;;4.97;2.75;;;;;;;14.41;55.77;97754.28;5084786;27;45301;-83
2021/04/26 01:17:23;;;;;;;3.85;2.80;;;;;;;14.54;55.49;97753.53;5060671;28;45398;-82
2021/04/26 01:19:51;;;;;;;6.28;3.20;;;;;;;14.61;57.88;97771.53;5058898;28;45469;-81
2021/04/26 01:22:19;;;;;;;4.35;3.08;;;;;;;14.50;58.14;97776.34;5057664;28;45462;-81
2021/04/26 01:24:58;;;;;;;4.47;2.65;;;;;;;14.46;57.22;97788.44;5057959;28;45209;-83
2021/04/26 01:27:46;;;;;;;3.05;2.58;;;;;;;14.51;59.71;97798.59;5057799;28;45290;-80
2021/04/26 01:30:12;;;;;;;4.63;3.40;;;;;;;14.30;62.77;97802.94;5038951;28;45468;-80
2021/04/26 01:32:58;;;;;;;4.25;2.83;;;;;;;14.36;60.80;97810.19;5063257;28;45354;-80
2021/04/26 01:35:25;;;;;;;4.40;3.10;;;;;;;14.49;63.12;97806.78;5065712;27;45339;-81
2021/04/26 01:37:55;;;;;;;5.63;3.47;;;;;;;14.43;59.54;97804.88;5083801;28;45519;-80
2021/04/26 01:40:24;;;;;;;4.18;3.17;;;;;;;14.47;61.08;97814.19;5064209;28;46450;-81
2021/04/26 01:42:54;;;;;;;4.10;3.22;;;;;;;14.26;60.45;97805.16;5063900;28;45268;-81
2021/04/26 01:45:21;;;;;;;4.13;2.85;;;;;;;14.45;59.39;97805.53;5064487;28;45309;-82
2021/04/26 01:47:50;;;;;;;3.25;2.80;;;;;;;14.26;57.92;97804.34;5063836;28;45547;-81
2021/04/26 01:50:16;;;;;;;4.85;3.03;;;;;;;14.18;59.93;97802.59;5064261;28;46223;-81
2021/04/26 01:52:42;;;;;;;4.28;2.75;;;;;;;14.22;58.28;97806.53;5075264;28;45293;-81
2021/04/26 01:55:11;;;;;;;4.03;2.38;;;;;;;14.09;59.58;97809.91;5065377;28;45600;-80
2021/04/26 01:57:39;;;;;;;3.67;2.95;;;;;;;14.13;60.91;97815.72;5064324;28;45510;-80
2021/04/26 02:00:13;;;;;;;4.43;2.90;;;;;;;14.06;58.99;97809.47;5084408;27;46226;-80
2021/04/26 02:02:41;;;;;;;4.15;2.83;;;;;;;14.16;58.45;97818.00;5067374;27;45289;-80
2021/04/26 02:05:08;;;;;;;4.60;2.92;;;;;;;14.00;61.60;97827.06;5064266;28;45422;-80
2021/04/26 02:07:36;;;;;;;5.03;2.95;;;;;;;13.95;59.32;97816.97;5077576;28;45353;-81
2021/04/26 02:10:04;;;;;;;5.38;3.38;;;;;;;13.93;57.87;97802.13;5069880;28;48226;-83
2021/04/26 02:12:30;;;;;;;5.05;3.13;;;;;;;14.13;57.50;97797.00;5077134;28;45675;-84
2021/04/26 02:14:56;;;;;;;4.28;2.70;;;;;;;14.10;57.88;97800.84;5092570;27;45214;-82
2021/04/26 02:17:23;;;;;;;3.17;2.80;;;;;;;14.01;59.80;97802.84;5065628;27;45199;-83
2021/04/26 02:19:48;;;;;;;5.65;2.95;;;;;;;14.08;59.22;97802.09;5081100;28;46103;-83
2021/04/26 02:22:14;;;;;;;4.05;3.13;;;;;;;14.07;59.48;97809.25;5065571;27;45430;-83
2021/04/26 02:24:40;;;;;;;3.22;2.90;;;;;;;14.09;60.34;97809.09;5063825;28;45248;-82
2021/04/26 02:27:07;;;;;;;3.55;2.78;;;;;;;14.05;59.32;97802.47;5063454;28;45579;-81
2021/04/26 02:29:32;;;;;;;4.90;2.95;;;;;;;14.02;60.62;97803.66;5076010;28;45664;-80
2021/04/26 02:32:03;;;;;;;5.70;3.20;;;;;;;13.94;60.53;97801.94;5064942;27;45332;-81
2021/04/26 02:34:44;;;;;;;5.40;3.38;;;;;;;13.89;60.71;97808.84;5064802;28;45265;-82
2021/04/26 02:37:22;;;;;;;4.97;3.35;;;;;;;13.93;61.68;97796.78;5084129;27;45291;-83
2021/04/26 02:39:48;;;;;;;4.72;3.22;;;;;;;13.86;63.12;97804.72;5066893;27;45299;-81
2021/04/26 02:42:17;;;;;;;6.35;3.83;;;;;;;13.57;65.64;97795.72;5063621;28;45226;-80
2021/04/26 02:44:45;;;;;;;7.25;4.47;;;;;;;13.35;68.97;97798.31;5063624;28;45272;-80
2021/04/26 02:47:19;;;;;;;8.07;4.45;;;;;;;13.09;66.75;97802.28;5060967;28;45261;-79
2021/04/26 02:49:46;;;;;;;6.90;4.75;;;;;;;13.29;72.33;97799.03;5075674;28;45376;-80
2021/04/26 02:52:14;;;;;;;5.63;4.13;;;;;;;13.32;71.78;97800.53;5067962;27;45227;-80
2021/04/26 02:54:42;;;;;;;4.95;3.83;;;;;;;13.20;69.75;97800.97;5060887;28;45435;-80
2021/04/26 02:57:08;;;;;;;6.30;4.72;;;;;;;13.43;72.07;97803.56;5060038;28;45355;-80
2021/04/26 02:59:36;;;;;;;7.07;4.80;;;;;;;13.25;73.60;97795.09;5059919;28;46031;-80
2021/04/26 03:02:03;;;;;;;5.88;4.18;;;;;;;13.07;72.97;97795.44;5060060;28;45220;-81
2021/04/26 03:04:29;;;;;;;7.68;4.53;;;;;;;13.38;71.79;97789.91;5059587;28;45349;-81
2021/04/26 03:06:59;;;;;;;5.43;4.47;;;;;;;13.19;73.38;97787.81;5071655;28;45455;-81
2021/04/26 03:09:24;;;;;;;6.63;4.57;;;;;;;13.20;73.85;97792.16;5060890;27;45486;-81
2021/04/26 03:11:53;;;;;;;6.72;4.57;;;;;;;13.06;74.25;97783.09;5059815;28;45232;-81
2021/04/26 03:14:19;;;;;;;5.93;5.00;;;;;;;12.93;76.80;97789.09;5082939;27;45423;-80
2021/04/26 03:16:48;;;;;;;8.93;5.15;;;;;;;13.06;75.16;97781.28;5066999;27;45451;-79
2021/04/26 03:19:17;;;;;;;6.80;4.97;;;;;;;13.04;73.15;97780.63;5073865;28;45513;-82
2021/04/26 03:21:45;;;;;;;6.97;4.50;;;;;;;13.00;75.33;97784.69;5078821;27;45251;-80
2021/04/26 03:24:14;;;;;;;5.70;4.53;;;;;;;12.99;74.44;97783.03;5062994;28;45497;-80
2021/04/26 03:26:40;;;;;;;5.68;4.05;;;;;;;13.18;74.47;97783.50;5073025;28;45381;-81
2021/04/26 03:29:07;;;;;;;8.57;4.60;;;;;;;12.82;76.64;97783.19;5067731;28;46232;-81
2021/04/26 03:31:35;;;;;;;6.55;5.22;;;;;;;12.85;77.63;97795.34;5064694;28;45218;-81
2021/04/26 03:34:01;;;;;;;6.18;4.63;;;;;;;12.87;77.80;97792.50;5060371;28;45451;-80
2021/04/26 03:36:27;;;;;;;5.20;4.30;;;;;;;12.71;75.91;97799.63;5072471;27;45507;-80
2021/04/26 03:38:54;;;;;;;7.95;4.97;;;;;;;12.66;76.24;97786.00;5070824;27;46055;-81
2021/04/26 03:41:19;;;;;;;6.22;5.10;;;;;;;12.67;77.43;97793.00;5059318;28;45336;-79
2021/04/26 03:43:45;;;;;;;6.97;5.10;;;;;;;12.87;72.52;97795.16;5059523;28;45315;-80
2021/04/26 03:46:10;;;;;;;5.95;4.07;;;;;;;13.01;70.21;97796.19;5059131;28;45454;-78
2021/04/26 03:48:36;;;;;;;5.35;4.15;;;;;;;12.98;73.20;97798.19;5068073;28;46191;-80
2021/04/26 03:51:02;;;;;;;7.82;4.80;;;;;;;12.84;73.93;97786.50;5076686;28;45294;-79
2021/04/26 03:53:27;;;;;;;6.30;4.60;;;;;;;12.81;74.28;97781.53;5059394;28;45496;-79
2021/04/26 03:55:52;;;;;;;6.97;4.60;;;;;;;12.71;75.04;97775.59;5067241;28;45546;-80
2021/04/26 03:58:18;;;;;;;6.53;4.00;;;;;;;12.73;73.69;97772.78;5059973;28;47659;-80
2021/04/26 04:00:44;;;;;;;7.25;5.00;;;;;;;12.87;72.76;97781.81;5078681;27;45272;-79
2021/04/26 04:03:10;;;;;;;6.10;4.40;;;;;;;12.88;74.67;97776.28;5059113;28;45289;-81
2021/04/26 04:05:41;;;;;;;8.13;4.78;;;;;;;12.86;74.79;97780.16;5059250;28;45534;-81
2021/04/26 04:08:06;;;;;;;7.15;5.63;;;;;;;12.73;75.02;97780.78;5071067;28;46305;-82
2021/04/26 04:10:32;;;;;;;9.23;5.97;;;;;;;12.73;76.95;97778.94;5084175;27;45373;-82
2021/04/26 04:12:58;;;;;;;6.88;5.50;;;;;;;12.65;77.16;97787.84;5077366;27;45275;-80
2021/04/26 04:15:23;;;;;;;9.35;6.25;;;;;;;12.44;78.66;97775.19;5082049;27;45150;-81
2021/04/26 04:17:49;;;;;;;11.63;6.50;;;;;;;12.43;78.98;97781.53;5058651;28;45175;-81
2021/04/26 04:20:15;;;;;;;7.97;6.15;;;;;;;12.64;78.47;97775.53;5058668;28;45543;-80
2021/04/26 04:22:40;;;;;;;7.80;6.05;;;;;;;12.39;79.63;97780.22;5059072;28;45361;-80
2021/04/26 04:25:07;;;;;;;9.98;5.35;;;;;;;12.21;80.49;97785.84;5058624;28;45352;-80
2021/04/26 04:27:33;;;;;;;8.80;5.25;;;;;;;12.39;77.69;97783.75;5058525;28;45589;-80
2021/04/26 04:29:59;;;;;;;11.02;5.45;;;;;;;12.40;78.81;97781.88;5061420;28;45344;-80
2021/04/26 04:32:24;;;;;;;6.25;5.00;;;;;;;12.33;78.59;97787.09;5058350;28;45351;-79
2021/04/26 04:34:50;;;;;;;7.25;5.10;;;;;;;12.34;77.71;97766.59;5073845;27;45244;-80
2021/04/26 04:37:16;;;;;;;7.47;5.00;;;;;;;12.36;76.94;97775.25;5073900;28;46146;-82
2021/04/26 04:39:41;;;;;;;8.50;5.30;;;;;;;12.33;77.98;97763.09;5058566;28;45288;-83
2021/04/26 04:42:07;;;;;;;8.57;5.43;;;;;;;12.46;77.87;97762.50;5058332;28;45343;-83
2021/04/26 04:44:32;;;;;;;7.25;5.22;;;;;;;12.33;78.18;97756.94;5058367;28;45512;-82
2021/04/26 04:46:58;;;;;;;9.15;5.03;;;;;;;12.43;75.28;97752.19;5072785;28;45363;-81
2021/04/26 04:49:23;;;;;;;7.05;4.80;;;;;;;12.63;73.06;97751.69;5067091;28;45305;-82
2021/04/26 04:51:49;;;;;;;10.00;5.15;;;;;;;12.65;73.50;97755.84;5058300;28;45254;-82
2021/04/26 04:54:15;;;;;;;8.25;5.20;;;;;;;12.43;73.66;97757.53;5059753;28;45346;-81
2021/04/26 04:56:40;;;;;;;10.95;5.80;;;;;;;12.33;75.08;97752.44;5073747;28;46002;-81
2021/04/26 04:59:06;;;;;;;7.80;6.03;;;;;;;12.36;76.72;97745.94;5064427;27;45478;-80
2021/04/26 05:01:32;;;;;;;9.75;6.35;;;;;;;12.48;76.69;97741.81;5073072;27;45542;-83
2021/04/26 05:03:57;;;;;;;8.20;5.82;;;;;;;12.44;78.13;97742.38;5055411;28;45551;-80
2021/04/26 05:06:23;;;;;;;7.65;4.90;;;;;;;12.77;68.14;97747.38;5063764;28;46406;-78
2021/04/26 05:08:49;;;;;;;7.60;4.40;;;;;;;12.92;64.29;97739.41;5062916;28;45308;-78
2021/04/26 05:11:15;;;;;;;8.65;4.88;;;;;;;13.05;70.86;97736.06;5067738;28;45518;-77
2021/04/26 05:13:41;;;;;;;9.85;6.93;;;;;;;12.76;73.09;97751.06;5072219;27;45564;-77
2021/04/26 05:16:06;;;;;;;8.20;6.55;;;;;;;12.61;74.02;97751.03;5057207;28;46421;-78
2021/04/26 05:18:32;;;;;;;8.55;6.40;;;;;;;12.60;76.63;97752.88;5063501;27;45339;-80
2021/04/26 05:20:58;;;;;;;9.80;6.43;;;;;;;12.42;76.80;97755.88;5069595;27;45400;-79
2021/04/26 05:23:23;;;;;;;9.43;6.30;;;;;;;12.52;76.95;97756.44;5072811;27;45512;-81
2021/04/26 05:25:50;;;;;;;13.80;8.10;;;;;;;12.62;78.47;97764.22;5057074;28;45270;-81
2021/04/26 05:28:16;;;;;;;9.70;6.70;;;;;;;12.52;77.36;97763.63;5061127;28;45983;-79
2021/04/26 05:30:41;;;;;;;10.23;7.38;;;;;;;12.47;74.77;97766.81;5070239;28;45296;-79
2021/04/26 05:33:07;;;;;;;11.55;5.80;;;;;;;12.62;73.66;97763.38;5059089;28;45539;-78
2021/04/26 05:35:32;;;;;;;7.18;5.43;;;;;;;12.62;73.69;97763.38;5065010;27;46106;-80
2021/04/26 05:38:11;;;;;;;7.53;5.60;;;;;;;12.63;74.54;97767.69;5056955;28;45372;-80
2021/04/26 05:40:37;;;;;;;13.93;10.02;;;;;;;12.70;74.11;97768.63;5057050;28;45380;-80
2021/04/26 05:43:03;;;;;;;10.23;6.13;;;;;;;12.76;73.60;97772.41;5056905;28;45381;-78
2021/04/26 05:45:29;;;;;;;12.75;8.73;;;;;;;12.85;72.16;97773.97;5056660;28;46078;-78
2021/04/26 05:47:54;;;;;;;10.40;6.15;;;;;;;12.95;71.15;97763.88;5056596;28;45322;-81
2021/04/26 05:50:20;;;;;;;8.32;5.88;;;;;;;13.04;72.05;97767.28;5064987;28;45546;-79
2021/04/26 05:52:45;;;;;;;12.90;7.40;;;;;;;13.17;73.21;97769.28;5073322;28;45838;-80
2021/04/26 05:55:11;;;;;;;9.50;5.75;;;;;;;13.09;72.11;97770.25;5057152;28;45388;-80
2021/04/26 05:57:36;;;;;;;16.92;11.25;;;;;;;13.12;72.25;97771.69;5054776;28;45668;-80
2021/04/26 06:00:03;;;;;;;11.60;8.35;;;;;;;13.13;73.06;97779.53;5056601;28;45312;-80
2021/04/26 06:02:28;;;;;;;11.10;5.93;;;;;;;13.01;71.77;97773.00;5068663;27;45507;-80
2021/04/26 06:04:54;;;;;;;10.07;7.53;;;;;;;13.33;72.40;97783.50;5072397;27;46334;-78
2021/04/26 06:07:19;;;;;;;9.93;7.03;;;;;;;13.42;71.02;97801.09;5068676;27;45419;-79
2021/04/26 06:09:45;;;;;;;9.50;7.00;;;;;;;13.59;72.35;97793.69;5073894;28;45343;-79
2021/04/26 06:12:10;;;;;;;11.20;7.20;;;;;;;13.64;69.89;97795.81;5064786;27;45598;-79
2021/04/26 06:14:36;;;;;;;8.25;6.05;;;;;;;13.82;69.64;97792.75;5085987;27;45401;-79
2021/04/26 06:17:01;;;;;;;8.40;5.47;;;;;;;13.73;68.45;97783.19;5061989;27;45237;-80
2021/04/26 06:19:27;;;;;;;7.00;6.07;;;;;;;13.71;69.08;97770.88;5058910;28;45327;-79
2021/04/26 06:21:53;;;;;;;6.15;5.10;;;;;;;13.71;67.67;97776.19;5072405;28;45523;-79
2021/04/26 06:24:18;;;;;;;7.95;5.65;;;;;;;13.90;69.90;97792.66;5058060;28;47887;-78
2021/04/26 06:26:44;;;;;;;7.90;6.78;;;;;;;13.82;72.95;97787.41;5060314;28;45460;-79
2021/04/26 06:29:09;;;;;;;9.18;6.65;;;;;;;13.61;73.29;97791.66;5071782;28;45439;-80
2021/04/26 06:31:35;;;;;;;10.07;7.00;;;;;;;13.45;72.96;97787.38;5059329;28;45852;-79
2021/04/26 06:34:00;;;;;;;8.63;6.80;;;;;;;13.21;73.84;97785.78;5074513;27;46428;-79
2021/04/26 06:36:26;;;;;;;11.25;7.57;;;;;;;13.30;74.55;97779.34;5064865;27;45575;-78
2021/04/26 06:38:51;;;;;;;10.43;7.60;;;;;;;13.25;75.56;97779.06;5071874;27;45476;-79
2021/04/26 06:41:16;;;;;;;9.45;8.13;;;;;;;13.41;75.09;97788.75;5070140;28;45488;-80
2021/04/26 06:43:42;;;;;;;10.90;7.63;;;;;;;13.35;75.38;97792.97;5071226;27;45935;-79
2021/04/26 06:46:07;;;;;;;10.20;8.52;;;;;;;13.26;75.96;97784.25;5059020;28;45449;-80
2021/04/26 06:48:33;;;;;;;9.15;7.90;;;;;;;13.25;75.54;97773.72;5058963;28;45408;-80
2021/04/26 06:50:58;;;;;;;11.77;8.80;;;;;;;13.28;76.48;97774.19;5058988;28;45516;-80
2021/04/26 06:53:24;;;;;;;10.00;7.93;;;;;;;13.35;76.20;97778.81;5064957;28;45702;-79
2021/04/26 06:55:49;;;;;;;9.82;7.65;;;;;;;13.37;76.37;97774.91;5059963;28;45399;-80
2021/04/26 06:58:15;;;;;;;11.30;8.50;;;;;;;13.61;76.25;97769.50;5059079;28;45368;-80
2021/04/26 07:00:40;;;;;;;10.07;7.50;;;;;;;13.57;75.67;97766.34;5059144;28;45222;-78
2021/04/26 07:03:06;;;;;;;10.25;7.68;;;;;;;13.82;75.02;97763.38;5061895;28;47459;-79
2021/04/26 07:05:31;;;;;;;11.52;8.45;;;;;;;13.76;75.41;97761.44;5061411;28;45302;-80
2021/04/26 07:07:57;;;;;;;11.52;8.10;;;;;;;13.59;76.77;97742.94;5075347;28;45418;-79
2021/04/26 07:10:22;;;;;;;10.65;7.93;;;;;;;13.59;76.35;97732.25;5061872;28;45360;-80
2021/04/26 07:12:48;;;;;;;10.32;8.30;;;;;;;13.67;76.17;97717.97;5068768;27;45963;-79
2021/04/26 07:15:15;;;;;;;13.23;7.97;;;;;;;13.62;76.24;97717.72;5075636;27;45280;-80
2021/04/26 07:17:42;;;;;;;9.75;7.65;;;;;;;14.10;75.21;97711.81;5068684;28;45486;-79
2021/04/26 07:20:10;;;;;;;8.88;6.80;;;;;;;14.35;73.44;97722.09;5058854;28;45500;-80
2021/04/26 07:22:35;;;;;;;9.27;6.68;;;;;;;14.72;71.18;97717.50;5071526;28;48021;-80
2021/04/26 07:25:02;;;;;;;8.25;6.22;;;;;;;14.44;67.00;97718.28;5069640;27;45287;-79
2021/04/26 07:27:28;;;;;;;9.50;5.65;;;;;;;14.83;66.51;97708.91;5060932;28;45410;-80
2021/04/26 07:29:54;;;;;;;9.00;5.95;;;;;;;15.18;63.88;97706.22;5073303;28;45425;-79
2021/04/26 07:32:19;;;;;;;8.52;5.70;;;;;;;15.53;63.89;97704.50;5075654;28;45883;-81
2021/04/26 07:34:45;;;;;;;8.35;5.20;;;;;;;15.52;64.53;97686.78;5060034;27;45700;-79
2021/04/26 07:37:10;;;;;;;7.20;5.00;;;;;;;15.45;62.93;97690.22;5058371;28;45422;-79
2021/04/26 07:39:36;;;;;;;6.10;4.75;;;;;;;16.01;61.53;97674.94;5062823;27;45460;-79
2021/04/26 07:42:02;;;;;;;6.65;5.00;;;;;;;16.69;60.61;97681.09;5067268;28;46310;-79
2021/04/26 07:44:28;;;;;;;5.35;4.50;;;;;;;16.51;60.05;97676.38;5067268;27;45389;-82
2021/04/26 07:46:57;;;;;;;7.65;5.53;;;;;;;16.08;61.13;97668.75;5069648;28;45429;-78
2021/04/26 07:49:23;;;;;;;6.68;5.18;;;;;;;15.96;60.52;97666.69;5058178;28;45221;-78
2021/04/26 07:51:49;;;;;;;6.65;4.90;;;;;;;16.62;60.96;97675.75;5057688;28;46633;-78
2021/04/26 07:54:14;;;;;;;7.40;5.38;;;;;;;16.77;59.41;97674.69;5070997;28;45451;-78
2021/04/26 07:56:40;;;;;;;6.22;4.80;;;;;;;16.52;60.84;97667.28;5064437;28;45712;-79
2021/04/26 07:59:06;;;;;;;6.38;5.15;;;;;;;16.09;61.69;97659.66;5064990;27;45594;-79
2021/04/26 08:01:33;;;;;;;6.53;4.85;;;;;;;16.26;61.58;97666.25;5062853;28;46200;-78
2021/04/26 08:03:58;;;;;;;6.88;4.93;;;;;;;16.17;60.70;97675.56;5062941;28;45402;-78
2021/04/26 08:06:24;;;;;;;7.70;5.13;;;;;;;15.90;59.77;97672.84;5060411;27;45735;-79
2021/04/26 08:08:49;;;;;;;5.93;4.70;;;;;;;15.87;58.65;97676.75;5067270;28;45361;-77
2021/04/26 08:11:15;;;;;;;5.70;4.88;;;;;;;15.48;58.83;97677.50;5064256;27;45547;-79
2021/04/26 08:13:40;;;;;;;6.95;4.68;;;;;;;15.51;58.32;97671.72;5086909;27;45295;-79
2021/04/26 08:16:06;;;;;;;10.32;4.88;;;;;;;15.67;57.55;97675.88;5075282;27;45463;-78
2021/04/26 08:18:31;;;;;;;8.82;4.75;;;;;;;15.81;57.10;97666.00;5060691;28;45163;-78
2021/04/26 08:20:57;;;;;;;7.78;5.13;;;;;;;15.94;57.77;97660.69;5057431;28;46405;-78
2021/04/26 08:23:23;;;;;;;7.28;5.10;;;;;;;16.89;57.40;97656.88;5074161;28;45569;-78
2021/04/26 08:25:48;;;;;;;7.53;5.28;;;;;;;16.40;57.20;97667.09;5057481;28;45343;-79
2021/04/26 08:28:16;;;;;;;8.50;4.70;;;;;;;16.53;56.44;97663.56;5059120;28;45350;-78
2021/04/26 08:30:42;;;;;;;7.00;5.22;;;;;;;18.07;53.01;97656.72;5068735;27;46127;-78
2021/04/26 08:33:07;;;;;;;7.35;5.15;;;;;;;19.39;49.23;97667.41;5056730;28;45468;-78
2021/04/26 08:35:33;;;;;;;5.72;4.57;;;;;;;21.15;44.86;97654.66;5078023;27;45509;-77
2021/04/26 08:37:58;;;;;;;5.90;4.82;;;;;;;20.17;45.47;97665.94;5075232;28;45506;-78
2021/04/26 08:40:24;;;;;;;6.75;4.47;;;;;;;20.45;46.19;97667.97;5057282;28;45382;-78
2021/04/26 08:42:49;;;;;;;5.72;3.95;;;;;;;19.10;47.36;97672.53;5056639;28;45561;-78
2021/04/26 08:45:15;;;;;;;6.30;4.60;;;;;;;19.03;48.85;97665.59;5072828;27;45533;-78
2021/04/26 08:47:41;;;;;;;5.63;4.70;;;;;;;18.65;51.25;97667.41;5061323;27;45694;-80
2021/04/26 08:50:08;;;;;;;5.75;4.60;;;;;;;17.95;50.68;97671.88;5057326;28;45864;-77
2021/04/26 08:52:34;;;;;;;6.50;4.60;;;;;;;18.31;50.99;97673.09;5056283;28;45515;-80
2021/04/26 08:55:00;;;;;;;7.53;4.60;;;;;;;18.40;50.42;97675.53;5057401;28;45676;-80
2021/04/26 08:57:26;;;;;;;61.58;10.63;;;;;;;18.80;49.45;97670.56;5057255;28;45427;-79
2021/04/26 08:59:51;;;;;;;8.35;4.82;;;;;;;19.35;47.82;97665.41;5056822;28;46320;-80
2021/04/26 09:02:17;;;;;;;8.68;4.90;;;;;;;19.87;48.04;97674.84;5056808;28;45392;-81
2021/04/26 09:04:55;;;;;;;6.18;4.53;;;;;;;19.07;47.92;97664.91;5056713;28;45545;-81
2021/04/26 09:07:22;;;;;;;5.95;4.60;;;;;;;18.78;49.61;97669.97;5070748;28;45392;-79
2021/04/26 09:09:52;;;;;;;7.93;5.13;;;;;;;18.49;51.17;97668.81;5056556;28;46235;-79
2021/04/26 09:12:31;;;;;;;6.60;4.80;;;;;;;18.05;51.93;97680.31;5062601;28;45551;-81
2021/04/26 09:14:59;;;;;;;7.45;5.13;;;;;;;18.26;51.76;97675.63;5086600;27;45345;-81
2021/04/26 09:17:34;;;;;;;5.20;4.32;;;;;;;18.02;52.00;97683.44;5062312;27;45554;-80
2021/04/26 09:20:15;;;;;;;7.85;5.18;;;;;;;18.12;53.05;97690.25;5081177;27;46246;-80
2021/04/26 09:22:44;;;;;;;6.25;5.30;;;;;;;17.84;52.36;97678.81;5065440;28;45300;-79
2021/04/26 09:25:28;;;;;;;6.38;4.93;;;;;;;17.54;52.66;97684.75;5064547;27;45521;-78
2021/04/26 09:28:07;;;;;;;8.18;5.15;;;;;;;17.35;53.71;97686.50;5061437;28;45368;-79
2021/04/26 09:30:35;;;;;;;7.03;4.95;;;;;;;17.13;54.20;97689.47;5076394;28;47105;-82
2021/04/26 09:33:30;;;;;;;7.50;4.90;;;;;;;17.61;54.07;97698.16;5063295;28;45294;-82
2021/04/26 09:36:03;;;;;;;8.88;5.30;;;;;;;17.22;55.15;97698.13;5077813;27;45382;-83
2021/04/26 09:38:31;;;;;;;8.30;5.50;;;;;;;17.07;55.73;97684.94;5064848;27;45499;-82
2021/04/26 09:41:11;;;;;;;7.65;5.40;;;;;;;17.36;55.61;97680.91;5057248;28;46214;-82
2021/04/26 09:43:37;;;;;;;8.98;5.80;;;;;;;17.73;55.43;97669.56;5067326;28;45585;-83
2021/04/26 09:46:03;;;;;;;11.00;6.32;;;;;;;17.73;54.30;97663.38;5064494;27;45480;-85
2021/04/26 09:48:29;;;;;;;7.65;5.88;;;;;;;18.12;54.21;97669.53;5056964;28;45501;-82
2021/04/26 09:51:07;;;;;;;9.40;6.38;;;;;;;18.44;54.33;97661.38;5056904;28;45288;-86
2021/04/26 09:53:39;;;;;;;7.90;6.65;;;;;;;18.05;54.20;97658.81;5060338;28;45171;-85
2021/04/26 09:56:19;;;;;;;8.05;6.55;;;;;;;18.03;53.13;97650.13;5062852;28;45516;-80
2021/04/26 09:58:47;;;;;;;12.98;7.88;;;;;;;18.30;54.81;97638.31;5060344;28;45326;-84
2021/04/26 10:01:13;;;;;;;9.43;7.28;;;;;;;18.47;52.99;97638.59;5060675;28;46115;-86
2021/04/26 10:03:38;;;;;;;8.85;6.53;;;;;;;18.14;52.27;97639.72;5060073;28;45298;-84
2021/04/26 10:06:04;;;;;;;13.32;7.28;;;;;;;18.61;53.45;97623.94;5074081;28;45381;-84
2021/04/26 10:08:30;;;;;;;12.35;7.95;;;;;;;18.48;52.83;97619.50;5066722;28;45617;-87
2021/04/26 10:10:57;;;;;;;10.75;9.25;;;;;;;18.59;54.24;97617.97;5066435;28;47498;-83
2021/04/26 10:13:24;;;;;;;11.40;7.90;;;;;;;18.51;52.67;97619.06;5066919;27;45377;-82
2021/04/26 10:15:58;;;;;;;9.82;6.55;;;;;;;18.49;53.38;97610.41;5067197;27;45446;-83
2021/04/26 10:18:38;;;;;;;9.77;7.30;;;;;;;18.31;53.44;97605.84;5067902;28;45310;-81
2021/04/26 10:21:25;;;;;;;10.87;6.53;;;;;;;18.63;53.73;97603.00;5064634;27;45699;-82
2021/04/26 10:23:54;;;;;;;12.15;7.32;;;;;;;18.57;53.02;97589.63;5080192;27;45411;-82
2021/04/26 10:26:38;;;;;;;9.70;7.55;;;;;;;18.50;53.14;97587.00;5080392;27;45433;-82
2021/04/26 10:29:07;;;;;;;13.77;6.70;;;;;;;18.38;54.04;97582.38;5068888;28;45239;-80
2021/04/26 10:31:59;;;;;;;9.45;7.00;;;;;;;17.75;54.56;97573.38;5063879;28;45447;-84
2021/04/26 10:34:47;;;;;;;9.77;7.78;;;;;;;18.08;55.42;97569.59;5075339;28;45428;-85
2021/04/26 10:37:15;;;;;;;8.95;6.70;;;;;;;17.91;55.90;97569.31;5067006;28;45499;-83
2021/04/26 10:39:56;;;;;;;9.90;7.05;;;;;;;17.39;55.13;97563.28;5079957;28;45419;-84
2021/04/26 10:42:32;;;;;;;9.18;7.63;;;;;;;17.23;56.51;97564.59;5059359;28;45396;-83
2021/04/26 10:44:58;;;;;;;10.77;7.80;;;;;;;17.17;57.05;97545.63;5059702;28;45264;-83
2021/04/26 10:47:38;;;;;;;9.85;7.00;;;;;;;17.13;57.13;97536.34;5059551;28;45342;-83
2021/04/26 10:50:06;;;;;;;12.90;7.53;;;;;;;17.17;57.03;97532.19;5062657;28;45426;-83
2021/04/26 10:52:35;;;;;;;11.70;7.20;;;;;;;17.23;56.69;97522.47;5060792;28;46104;-85
2021/04/26 10:55:03;;;;;;;10.95;7.75;;;;;;;17.20;57.37;97512.97;5071412;28;45472;-84
2021/04/26 10:57:47;;;;;;;10.57;8.00;;;;;;;17.35;57.33;97499.22;5078112;28;45266;-84
2021/04/26 11:00:29;;;;;;;12.35;8.65;;;;;;;17.26;57.18;97502.41;5064358;28;45904;-82
2021/04/26 11:02:55;;;;;;;11.00;7.43;;;;;;;17.12;57.51;97498.97;5059410;28;48482;-84
2021/04/26 11:05:26;;;;;;;11.15;8.20;;;;;;;17.41;57.14;97489.47;5064551;28;45366;-80
2021/04/26 11:08:03;;;;;;;10.90;7.30;;;;;;;17.33;57.24;97485.19;5069868;28;45478;-80
2021/04/26 11:10:29;;;;;;;9.88;7.10;;;;;;;17.46;57.19;97483.44;5073521;28;45475;-83
2021/04/26 11:12:56;;;;;;;8.75;6.78;;;;;;;17.13;56.79;97477.25;5067010;27;46414;-80
2021/04/26 11:15:23;;;;;;;11.68;7.22;;;;;;;16.77;57.05;97476.00;5083586;27;45455;-81
2021/04/26 11:17:49;;;;;;;9.60;7.25;;;;;;;16.97;56.63;97464.31;5063814;28;45473;-81
2021/04/26 11:20:21;;;;;;;11.57;8.25;;;;;;;16.59;57.73;97463.28;5068189;27;45541;-81
2021/04/26 11:22:47;;;;;;;11.85;7.22;;;;;;;16.57;57.23;97463.53;5059053;28;46292;-81
2021/04/26 11:25:32;;;;;;;12.13;8.25;;;;;;;16.84;57.45;97458.00;5059090;28;45359;-81
2021/04/26 11:27:58;;;;;;;14.13;8.73;;;;;;;16.68;57.17;97453.97;5062057;28;45343;-80
2021/04/26 11:30:35;;;;;;;11.57;7.25;;;;;;;16.61;57.53;97451.31;5071847;28;45564;-81
2021/04/26 11:33:04;;;;;;;13.13;7.65;;;;;;;16.54;57.24;97447.84;5068451;27;45440;-82
2021/04/26 11:35:32;;;;;;;10.65;7.35;;;;;;;16.55;56.82;97452.19;5066384;27;45419;-81